createdAt,value
2022-11-16T00:00:08.540Z,11.35
2022-11-16T00:01:04.678Z,11.38
2022-11-16T00:02:06.535Z,11.37
2022-11-16T00:03:08.399Z,11.39
2022-11-16T00:04:10.256Z,11.40
2022-11-16T00:05:12.050Z,11.41
2022-11-16T00:06:14.004Z,11.41
2022-11-16T00:07:15.924Z,11.42
2022-11-16T00:08:17.788Z,11.40
2022-11-16T00:09:19.628Z,11.40
2022-11-16T00:10:21.438Z,11.42
2022-11-16T00:11:23.284Z,11.40
2022-11-16T00:12:25.100Z,11.41
2022-11-16T00:13:26.905Z,11.41
2022-11-16T00:14:28.769Z,11.42
2022-11-16T00:15:30.579Z,11.42
2022-11-16T00:16:32.460Z,11.43
2022-11-16T00:17:34.276Z,11.44
2022-11-16T00:18:36.292Z,11.44
2022-11-16T00:19:38.199Z,11.43
2022-11-16T00:20:39.987Z,11.44
2022-11-16T00:21:41.897Z,11.43
2022-11-16T00:22:43.747Z,11.44
2022-11-16T00:23:45.591Z,11.44
2022-11-16T00:24:47.460Z,11.46
2022-11-16T00:25:49.301Z,11.46
2022-11-16T00:26:51.278Z,11.47
2022-11-16T00:27:53.096Z,11.47
2022-11-16T00:28:54.956Z,11.48
2022-11-16T00:29:56.813Z,11.47
2022-11-16T00:30:58.624Z,11.48
2022-11-16T00:32:00.551Z,11.49
2022-11-16T00:33:02.418Z,11.50
2022-11-16T00:34:04.234Z,11.50
2022-11-16T00:35:06.056Z,11.51
2022-11-16T00:36:08.161Z,11.51
2022-11-16T00:37:10.013Z,11.52
2022-11-16T00:38:11.884Z,11.54
2022-11-16T00:39:13.733Z,11.53
2022-11-16T00:40:15.590Z,11.54
2022-11-16T00:41:17.434Z,11.55
2022-11-16T00:42:19.313Z,11.55
2022-11-16T00:43:21.125Z,11.55
2022-11-16T00:44:22.931Z,11.56
2022-11-16T00:45:24.898Z,11.56
2022-11-16T00:46:26.739Z,11.55
2022-11-16T00:47:28.675Z,11.55
2022-11-16T00:48:30.707Z,11.54
2022-11-16T00:49:32.691Z,11.55
2022-11-16T00:50:34.633Z,11.52
2022-11-16T00:51:36.451Z,11.53
2022-11-16T00:52:38.552Z,11.52
2022-11-16T00:53:40.357Z,11.53
2022-11-16T00:54:42.185Z,11.54
2022-11-16T00:55:43.993Z,11.56
2022-11-16T00:56:45.793Z,11.56
2022-11-16T00:57:47.697Z,11.57
2022-11-16T00:58:49.543Z,11.58
2022-11-16T00:59:51.404Z,11.58
2022-11-16T01:00:53.261Z,11.57
2022-11-16T01:01:55.156Z,11.59
2022-11-16T01:02:57.151Z,11.59
2022-11-16T01:03:58.952Z,11.59
2022-11-16T01:05:00.803Z,11.60
2022-11-16T01:06:02.707Z,11.61
2022-11-16T01:07:04.612Z,11.62
2022-11-16T01:08:06.570Z,11.63
2022-11-16T01:09:08.359Z,11.63
2022-11-16T01:10:10.529Z,11.64
2022-11-16T01:11:12.369Z,11.65
2022-11-16T01:12:14.171Z,11.67
2022-11-16T01:13:16.055Z,11.66
2022-11-16T01:14:17.918Z,11.67
2022-11-16T01:15:19.737Z,11.66
2022-11-16T01:16:21.590Z,11.64
2022-11-16T01:17:23.425Z,11.63
2022-11-16T01:18:25.336Z,11.63
2022-11-16T01:19:27.136Z,11.63
2022-11-16T01:20:28.944Z,11.63
2022-11-16T01:21:30.760Z,11.64
2022-11-16T01:22:32.629Z,11.65
2022-11-16T01:23:34.510Z,11.65
2022-11-16T01:24:36.324Z,11.65
2022-11-16T01:25:38.138Z,11.66
2022-11-16T01:26:40.003Z,11.67
2022-11-16T01:27:41.800Z,11.67
2022-11-16T01:28:43.650Z,11.67
2022-11-16T01:29:45.483Z,11.68
2022-11-16T01:30:47.278Z,11.65
2022-11-16T01:31:49.104Z,11.71
2022-11-16T01:32:50.928Z,11.72
2022-11-16T01:33:52.835Z,11.74
2022-11-16T01:34:54.652Z,11.75
2022-11-16T01:35:56.540Z,11.77
2022-11-16T01:36:58.341Z,11.76
2022-11-16T01:38:00.211Z,11.77
2022-11-16T01:39:02.090Z,11.77
2022-11-16T01:40:03.950Z,11.77
2022-11-16T01:41:05.796Z,11.77
2022-11-16T01:42:07.604Z,11.77
2022-11-16T01:43:09.398Z,11.77
2022-11-16T01:44:11.254Z,11.78
2022-11-16T01:45:13.077Z,11.79
2022-11-16T01:46:14.936Z,11.78
2022-11-16T01:47:16.778Z,11.78
2022-11-16T01:48:18.695Z,11.79
2022-11-16T01:49:20.976Z,11.79
2022-11-16T01:50:22.785Z,11.80
2022-11-16T01:51:24.614Z,11.81
2022-11-16T01:52:26.453Z,11.80
2022-11-16T01:53:28.264Z,11.81
2022-11-16T01:54:30.157Z,11.82
2022-11-16T01:55:31.968Z,11.83
2022-11-16T01:56:33.805Z,11.83
2022-11-16T01:57:35.676Z,11.83
2022-11-16T01:58:37.468Z,11.85
2022-11-16T01:59:39.361Z,11.85
2022-11-16T02:00:41.219Z,11.86
2022-11-16T02:01:43.154Z,11.85
2022-11-16T02:02:44.940Z,11.86
2022-11-16T02:03:46.822Z,11.86
2022-11-16T02:04:48.732Z,11.87
2022-11-16T02:05:50.548Z,11.85
2022-11-16T02:06:52.419Z,11.85
2022-11-16T02:07:54.319Z,11.86
2022-11-16T02:08:56.184Z,11.86
2022-11-16T02:09:58.034Z,11.86
2022-11-16T02:10:59.833Z,11.85
2022-11-16T02:12:01.687Z,11.86
2022-11-16T02:13:03.553Z,11.87
2022-11-16T02:14:05.382Z,11.88
2022-11-16T02:15:07.230Z,11.88
2022-11-16T02:16:09.349Z,11.89
2022-11-16T02:17:11.189Z,11.89
2022-11-16T02:18:13.015Z,11.88
2022-11-16T02:19:14.810Z,11.88
2022-11-16T02:20:16.772Z,11.86
2022-11-16T02:21:18.585Z,11.88
2022-11-16T02:22:20.464Z,11.86
2022-11-16T02:23:22.682Z,11.85
2022-11-16T02:24:24.545Z,11.86
2022-11-16T02:25:26.452Z,11.85
2022-11-16T02:26:28.305Z,11.86
2022-11-16T02:27:30.127Z,11.83
2022-11-16T02:28:32.233Z,11.82
2022-11-16T02:29:34.184Z,11.82
2022-11-16T02:30:36.037Z,11.83
2022-11-16T02:31:37.884Z,11.82
2022-11-16T02:32:39.736Z,11.82
2022-11-16T02:33:41.564Z,11.81
2022-11-16T02:34:43.423Z,11.80
2022-11-16T02:35:45.349Z,11.81
2022-11-16T02:36:47.265Z,11.81
2022-11-16T02:37:49.102Z,11.82
2022-11-16T02:38:50.937Z,11.82
2022-11-16T02:39:52.787Z,11.83
2022-11-16T02:40:54.623Z,11.84
2022-11-16T02:41:56.452Z,11.83
2022-11-16T02:42:58.329Z,11.85
2022-11-16T02:44:00.155Z,11.86
2022-11-16T02:45:02.090Z,11.87
2022-11-16T02:46:04.062Z,11.87
2022-11-16T02:47:05.870Z,11.89
2022-11-16T02:48:07.736Z,11.89
2022-11-16T02:49:09.570Z,11.89
2022-11-16T02:50:11.582Z,11.89
2022-11-16T02:51:13.544Z,11.91
2022-11-16T02:52:15.335Z,11.89
2022-11-16T02:53:17.228Z,11.88
2022-11-16T02:54:19.024Z,11.89
2022-11-16T02:55:20.845Z,11.88
2022-11-16T02:56:22.733Z,11.88
2022-11-16T02:57:24.667Z,11.87
2022-11-16T02:58:26.483Z,11.87
2022-11-16T02:59:28.282Z,11.87
2022-11-16T03:00:30.133Z,11.88
2022-11-16T03:01:32.056Z,11.86
2022-11-16T03:02:33.872Z,11.86
2022-11-16T03:03:35.659Z,11.86
2022-11-16T03:04:37.470Z,11.87
2022-11-16T03:05:39.326Z,11.87
2022-11-16T03:06:41.239Z,11.87
2022-11-16T03:07:43.059Z,11.86
2022-11-16T03:08:44.866Z,11.86
2022-11-16T03:09:46.649Z,11.86
2022-11-16T03:10:48.467Z,11.86
2022-11-16T03:11:50.311Z,11.86
2022-11-16T03:12:52.102Z,11.86
2022-11-16T03:13:53.913Z,11.85
2022-11-16T03:14:55.726Z,11.83
2022-11-16T03:15:57.527Z,11.82
2022-11-16T03:16:59.436Z,11.81
2022-11-16T03:18:01.241Z,11.81
2022-11-16T03:19:03.062Z,11.82
2022-11-16T03:20:04.991Z,11.81
2022-11-16T03:21:06.778Z,11.82
2022-11-16T03:22:08.720Z,11.82
2022-11-16T03:23:10.530Z,11.83
2022-11-16T03:24:12.349Z,11.83
2022-11-16T03:25:14.172Z,11.82
2022-11-16T03:26:15.977Z,11.83
2022-11-16T03:27:17.793Z,11.82
2022-11-16T03:28:19.602Z,11.83
2022-11-16T03:29:21.421Z,11.82
2022-11-16T03:30:23.993Z,11.84
2022-11-16T03:31:25.943Z,11.84
2022-11-16T03:32:27.775Z,11.85
2022-11-16T03:33:29.566Z,11.85
2022-11-16T03:34:31.409Z,11.85
2022-11-16T03:35:33.239Z,11.83
2022-11-16T03:36:35.150Z,11.86
2022-11-16T03:37:37.034Z,11.85
2022-11-16T03:38:38.859Z,11.87
2022-11-16T03:39:42.478Z,11.87
2022-11-16T03:40:44.288Z,11.88
2022-11-16T03:41:46.096Z,11.88
2022-11-16T03:42:47.964Z,11.86
2022-11-16T03:43:49.773Z,11.86
2022-11-16T03:44:51.601Z,11.86
2022-11-16T03:45:53.405Z,11.86
2022-11-16T03:46:55.222Z,11.83
2022-11-16T03:47:57.081Z,11.85
2022-11-16T03:48:58.898Z,11.83
2022-11-16T03:50:00.729Z,11.82
2022-11-16T03:51:02.677Z,11.82
2022-11-16T03:52:04.484Z,11.83
2022-11-16T03:53:06.433Z,11.84
2022-11-16T03:54:08.217Z,11.84
2022-11-16T03:55:10.062Z,11.84
2022-11-16T03:56:11.876Z,11.85
2022-11-16T03:57:13.693Z,11.83
2022-11-16T03:58:15.575Z,11.82
2022-11-16T03:59:17.359Z,11.81
2022-11-16T04:00:19.271Z,11.80
2022-11-16T04:01:21.114Z,11.80
2022-11-16T04:02:22.880Z,11.81
2022-11-16T04:03:24.714Z,11.80
2022-11-16T04:04:26.612Z,11.81
2022-11-16T04:05:28.407Z,11.82
2022-11-16T04:06:30.219Z,11.82
2022-11-16T04:07:32.102Z,11.84
2022-11-16T04:08:34.249Z,11.84
2022-11-16T04:09:36.175Z,11.87
2022-11-16T04:10:38.086Z,11.88
2022-11-16T04:11:39.883Z,11.91
2022-11-16T04:12:41.682Z,11.90
2022-11-16T04:13:43.548Z,11.92
2022-11-16T04:14:45.340Z,11.91
2022-11-16T04:15:47.160Z,11.90
2022-11-16T04:16:48.983Z,11.90
2022-11-16T04:17:50.807Z,11.90
2022-11-16T04:18:52.661Z,11.91
2022-11-16T04:19:58.184Z,11.89
2022-11-16T04:20:58.082Z,11.87
2022-11-16T04:21:59.912Z,11.88
2022-11-16T04:23:01.724Z,11.87
2022-11-16T04:24:03.617Z,11.88
2022-11-16T04:25:05.441Z,11.87
2022-11-16T04:26:08.050Z,11.87
2022-11-16T04:27:09.837Z,11.89
2022-11-16T04:28:11.656Z,11.88
2022-11-16T04:29:13.488Z,11.89
2022-11-16T04:30:15.308Z,11.89
2022-11-16T04:31:17.141Z,11.91
2022-11-16T04:32:18.955Z,11.92
2022-11-16T04:33:20.741Z,11.92
2022-11-16T04:34:22.591Z,11.93
2022-11-16T04:35:24.424Z,11.94
2022-11-16T04:36:26.237Z,11.94
2022-11-16T04:37:28.047Z,11.94
2022-11-16T04:38:29.870Z,11.94
2022-11-16T04:39:31.769Z,11.96
2022-11-16T04:40:33.678Z,11.96
2022-11-16T04:41:35.488Z,11.96
2022-11-16T04:42:37.295Z,11.98
2022-11-16T04:43:39.227Z,11.98
2022-11-16T04:44:41.067Z,11.98
2022-11-16T04:45:42.885Z,11.98
2022-11-16T04:46:44.696Z,11.96
2022-11-16T04:47:46.523Z,11.96
2022-11-16T04:48:48.339Z,11.98
2022-11-16T04:49:50.177Z,11.96
2022-11-16T04:50:52.079Z,11.97
2022-11-16T04:51:53.895Z,11.98
2022-11-16T04:52:55.703Z,11.98
2022-11-16T04:53:57.529Z,11.98
2022-11-16T04:54:59.465Z,11.98
2022-11-16T04:56:01.272Z,11.98
2022-11-16T04:57:03.053Z,11.99
2022-11-16T04:58:04.877Z,12.00
2022-11-16T04:59:06.683Z,12.01
2022-11-16T05:00:09.458Z,12.01
2022-11-16T05:01:11.338Z,12.02
2022-11-16T05:02:13.082Z,12.04
2022-11-16T05:03:14.930Z,12.04
2022-11-16T05:04:16.725Z,12.02
2022-11-16T05:05:18.559Z,12.02
2022-11-16T05:06:20.381Z,12.03
2022-11-16T05:07:22.324Z,12.04
2022-11-16T05:08:24.152Z,12.05
2022-11-16T05:09:25.951Z,12.06
2022-11-16T05:10:27.984Z,12.07
2022-11-16T05:11:29.786Z,12.07
2022-11-16T05:12:31.613Z,12.07
2022-11-16T05:13:33.433Z,12.08
2022-11-16T05:14:35.220Z,12.09
2022-11-16T05:15:37.072Z,12.10
2022-11-16T05:16:38.928Z,12.10
2022-11-16T05:17:40.727Z,12.11
2022-11-16T05:18:42.548Z,12.10
2022-11-16T05:19:44.362Z,12.11
2022-11-16T05:20:46.206Z,12.12
2022-11-16T05:21:48.013Z,12.14
2022-11-16T05:22:49.828Z,12.16
2022-11-16T05:23:51.634Z,12.15
2022-11-16T05:24:53.454Z,12.16
2022-11-16T05:25:55.369Z,12.16
2022-11-16T05:26:57.180Z,12.17
2022-11-16T05:27:58.981Z,12.18
2022-11-16T05:29:01.004Z,12.18
2022-11-16T05:30:02.822Z,12.18
2022-11-16T05:31:04.667Z,12.20
2022-11-16T05:32:06.472Z,12.20
2022-11-16T05:33:08.282Z,12.20
2022-11-16T05:34:10.109Z,12.20
2022-11-16T05:35:11.920Z,12.20
2022-11-16T05:36:13.761Z,12.20
2022-11-16T05:37:15.578Z,12.20
2022-11-16T05:38:17.396Z,12.20
2022-11-16T05:39:19.224Z,12.19
2022-11-16T05:40:21.028Z,12.20
2022-11-16T05:41:23.096Z,12.19
2022-11-16T05:42:24.896Z,12.18
2022-11-16T05:43:26.726Z,12.19
2022-11-16T05:44:28.535Z,12.19
2022-11-16T05:45:30.333Z,12.20
2022-11-16T05:46:32.268Z,12.22
2022-11-16T05:47:34.101Z,12.21
2022-11-16T05:48:36.275Z,12.21
2022-11-16T05:49:38.221Z,12.21
2022-11-16T05:50:42.955Z,12.22
2022-11-16T05:51:43.689Z,12.22
2022-11-16T05:52:45.488Z,12.24
2022-11-16T05:53:47.306Z,12.24
2022-11-16T05:54:49.109Z,12.26
2022-11-16T05:55:50.950Z,12.26
2022-11-16T05:56:52.859Z,12.28
2022-11-16T05:57:54.672Z,12.29
2022-11-16T05:58:56.456Z,12.31
2022-11-16T05:59:58.274Z,12.32
2022-11-16T06:01:00.193Z,12.32
2022-11-16T06:02:02.016Z,12.33
2022-11-16T06:03:03.881Z,12.33
2022-11-16T06:04:05.748Z,12.34
2022-11-16T06:05:07.607Z,12.34
2022-11-16T06:06:09.587Z,12.34
2022-11-16T06:07:11.477Z,12.35
2022-11-16T06:08:13.252Z,12.35
2022-11-16T06:09:15.050Z,12.36
2022-11-16T06:10:16.854Z,12.37
2022-11-16T06:11:18.653Z,12.38
2022-11-16T06:12:20.593Z,12.39
2022-11-16T06:13:22.416Z,12.40
2022-11-16T06:14:24.221Z,12.42
2022-11-16T06:15:26.041Z,12.43
2022-11-16T06:16:27.950Z,12.43
2022-11-16T06:17:29.821Z,12.44
2022-11-16T06:18:32.086Z,12.45
2022-11-16T06:19:34.103Z,12.45
2022-11-16T06:20:35.902Z,12.46
2022-11-16T06:21:37.697Z,12.47
2022-11-16T06:22:39.575Z,12.47
2022-11-16T06:23:41.377Z,12.47
2022-11-16T06:24:43.179Z,12.48
2022-11-16T06:25:45.003Z,12.49
2022-11-16T06:26:46.787Z,12.50
2022-11-16T06:27:48.735Z,12.51
2022-11-16T06:28:50.591Z,12.52
2022-11-16T06:29:52.405Z,12.52
2022-11-16T06:30:54.196Z,12.53
2022-11-16T06:31:56.032Z,12.54
2022-11-16T06:32:57.897Z,12.54
2022-11-16T06:33:59.712Z,12.55
2022-11-16T06:35:01.526Z,12.56
2022-11-16T06:36:03.409Z,12.57
2022-11-16T06:37:05.280Z,12.57
2022-11-16T06:38:07.125Z,12.57
2022-11-16T06:39:09.033Z,12.57
2022-11-16T06:40:10.819Z,12.58
2022-11-16T06:41:12.632Z,12.57
2022-11-16T06:42:14.571Z,12.58
2022-11-16T06:43:16.456Z,12.59
2022-11-16T06:44:18.281Z,12.60
2022-11-16T06:45:20.137Z,12.61
2022-11-16T06:46:22.049Z,12.59
2022-11-16T06:47:23.877Z,12.60
2022-11-16T06:48:25.758Z,12.60
2022-11-16T06:49:27.617Z,12.60
2022-11-16T06:50:29.487Z,12.60
2022-11-16T06:51:31.323Z,12.61
2022-11-16T06:52:33.147Z,12.61
2022-11-16T06:53:34.998Z,12.61
2022-11-16T06:54:36.775Z,12.59
2022-11-16T06:55:38.636Z,12.59
2022-11-16T06:56:40.563Z,12.60
2022-11-16T06:57:42.395Z,12.59
2022-11-16T06:58:44.402Z,12.60
2022-11-16T06:59:46.227Z,12.61
2022-11-16T07:00:48.117Z,12.62
2022-11-16T07:01:50.028Z,12.62
2022-11-16T07:02:51.866Z,12.64
2022-11-16T07:03:53.720Z,12.64
2022-11-16T07:05:00.606Z,12.64
2022-11-16T07:05:59.160Z,12.66
2022-11-16T07:07:00.989Z,12.67
2022-11-16T07:08:02.848Z,12.67
2022-11-16T07:09:04.698Z,12.68
2022-11-16T07:10:07.011Z,12.67
2022-11-16T07:11:08.816Z,12.68
2022-11-16T07:12:10.664Z,12.69
2022-11-16T07:13:12.492Z,12.70
2022-11-16T07:14:14.356Z,12.71
2022-11-16T07:15:16.159Z,12.70
2022-11-16T07:16:18.022Z,12.72
2022-11-16T07:17:19.839Z,12.71
2022-11-16T07:18:21.643Z,12.72
2022-11-16T07:19:23.510Z,12.72
2022-11-16T07:20:25.308Z,12.72
2022-11-16T07:21:27.209Z,12.70
2022-11-16T07:22:29.033Z,12.71
2022-11-16T07:23:30.865Z,12.72
2022-11-16T07:24:32.748Z,12.74
2022-11-16T07:25:34.545Z,12.74
2022-11-16T07:26:36.363Z,12.75
2022-11-16T07:27:38.178Z,12.75
2022-11-16T07:28:44.893Z,12.77
2022-11-16T07:29:43.674Z,12.76
2022-11-16T07:30:45.616Z,12.78
2022-11-16T07:31:47.438Z,12.77
2022-11-16T07:32:49.261Z,12.78
2022-11-16T07:33:51.067Z,12.78
2022-11-16T07:34:52.915Z,12.76
2022-11-16T07:35:54.724Z,12.76
2022-11-16T07:36:56.516Z,12.76
2022-11-16T07:37:58.312Z,12.75
2022-11-16T07:39:00.124Z,12.76
2022-11-16T07:40:01.981Z,12.76
2022-11-16T07:41:03.773Z,12.75
2022-11-16T07:42:05.590Z,12.75
2022-11-16T07:43:07.782Z,12.81
2022-11-16T07:44:12.039Z,12.82
2022-11-16T07:45:13.419Z,12.82
2022-11-16T07:47:19.066Z,12.84
2022-11-16T07:48:20.878Z,12.84
2022-11-16T07:49:22.680Z,12.84
2022-11-16T07:50:24.608Z,12.84
2022-11-16T07:51:26.480Z,12.83
2022-11-16T07:52:28.290Z,12.84
2022-11-16T07:53:30.085Z,12.86
2022-11-16T07:54:31.800Z,12.87
2022-11-16T07:55:33.623Z,12.88
2022-11-16T07:56:35.323Z,12.90
2022-11-16T07:57:37.175Z,12.91
2022-11-16T07:58:39.010Z,12.91
2022-11-16T07:59:40.803Z,12.92
2022-11-16T08:00:42.688Z,12.93
2022-11-16T08:01:44.590Z,12.93
2022-11-16T08:02:46.343Z,12.94
2022-11-16T08:03:48.168Z,12.94
2022-11-16T08:04:49.981Z,12.96
2022-11-16T08:05:51.895Z,12.96
2022-11-16T08:06:53.833Z,12.98
2022-11-16T08:08:13.540Z,12.97
2022-11-16T08:09:15.355Z,12.99
2022-11-16T08:10:17.263Z,12.98
2022-11-16T08:11:19.168Z,13.00
2022-11-16T08:12:21.007Z,12.99
2022-11-16T08:13:22.921Z,13.00
2022-11-16T08:14:24.741Z,13.01
2022-11-16T08:15:26.528Z,13.02
2022-11-16T08:16:28.432Z,13.02
2022-11-16T08:17:30.235Z,13.02
2022-11-16T08:18:32.422Z,13.01
2022-11-16T08:19:34.480Z,13.02
2022-11-16T08:20:36.414Z,13.01
2022-11-16T08:21:38.311Z,13.01
2022-11-16T08:22:40.130Z,13.01
2022-11-16T08:23:44.009Z,13.03
2022-11-16T08:24:45.842Z,13.03
2022-11-16T08:25:47.562Z,13.06
2022-11-16T08:26:49.402Z,13.06
2022-11-16T08:27:51.198Z,13.06
2022-11-16T08:28:53.013Z,13.07
2022-11-16T08:29:54.842Z,13.07
2022-11-16T08:30:56.631Z,13.07
2022-11-16T08:31:58.574Z,13.07
2022-11-16T08:33:00.382Z,13.08
2022-11-16T08:34:02.213Z,13.08
2022-11-16T08:35:04.038Z,13.10
2022-11-16T08:36:12.528Z,13.11
2022-11-16T08:37:10.213Z,13.12
2022-11-16T08:38:11.999Z,13.11
2022-11-16T08:39:13.823Z,13.12
2022-11-16T08:40:15.747Z,13.14
2022-11-16T08:41:17.592Z,13.13
2022-11-16T08:42:19.435Z,13.12
2022-11-16T08:43:21.249Z,13.12
2022-11-16T08:44:23.074Z,13.12
2022-11-16T08:45:24.897Z,13.13
2022-11-16T08:46:26.706Z,13.14
2022-11-16T08:47:28.689Z,13.14
2022-11-16T08:48:32.507Z,13.14
2022-11-16T08:49:34.603Z,13.14
2022-11-16T08:50:55.451Z,13.14
2022-11-16T08:51:40.014Z,13.14
2022-11-16T08:52:41.883Z,13.14
2022-11-16T08:53:43.702Z,13.14
2022-11-16T08:54:45.499Z,13.14
2022-11-16T08:55:47.376Z,13.15
2022-11-16T08:56:51.008Z,13.15
2022-11-16T08:57:52.850Z,13.15
2022-11-16T08:58:58.367Z,13.16
2022-11-16T08:59:58.304Z,13.17
2022-11-16T09:01:00.100Z,13.19
2022-11-16T09:02:02.043Z,13.19
2022-11-16T09:03:04.102Z,13.19
2022-11-16T09:04:05.910Z,13.18
2022-11-16T09:05:07.723Z,13.19
2022-11-16T09:06:10.105Z,13.20
2022-11-16T09:07:11.935Z,13.21
2022-11-16T09:08:13.713Z,13.20
2022-11-16T09:09:15.534Z,13.23
2022-11-16T09:10:17.334Z,13.22
2022-11-16T09:11:19.169Z,13.23
2022-11-16T09:12:20.972Z,13.24
2022-11-16T09:13:22.830Z,13.24
2022-11-16T09:14:24.713Z,13.25
2022-11-16T09:15:26.522Z,13.26
2022-11-16T09:16:28.339Z,13.27
2022-11-16T09:17:30.147Z,13.28
2022-11-16T09:18:32.496Z,13.29
2022-11-16T09:19:34.568Z,13.29
2022-11-16T09:20:36.402Z,13.30
2022-11-16T09:21:38.230Z,13.30
2022-11-16T09:22:40.059Z,13.31
2022-11-16T09:23:42.943Z,13.31
2022-11-16T09:24:44.757Z,13.33
2022-11-16T09:25:46.575Z,13.32
2022-11-16T09:26:48.497Z,13.31
2022-11-16T09:27:50.307Z,13.33
2022-11-16T09:28:52.169Z,13.32
2022-11-16T09:29:53.979Z,13.33
2022-11-16T09:30:55.919Z,13.31
2022-11-16T09:31:57.729Z,13.32
2022-11-16T09:32:59.535Z,13.32
2022-11-16T09:34:01.506Z,13.34
2022-11-16T09:35:03.297Z,13.33
2022-11-16T09:36:05.220Z,13.33
2022-11-16T09:37:07.037Z,13.35
2022-11-16T09:38:08.870Z,13.35
2022-11-16T09:39:29.501Z,13.36
2022-11-16T09:40:15.752Z,13.36
2022-11-16T09:41:17.574Z,13.37
2022-11-16T09:42:19.387Z,13.37
2022-11-16T09:43:21.200Z,13.36
2022-11-16T09:44:23.067Z,13.36
2022-11-16T09:45:24.857Z,13.37
2022-11-16T09:46:26.676Z,13.38
2022-11-16T09:47:28.575Z,13.39
2022-11-16T09:48:30.397Z,13.38
2022-11-16T09:49:32.339Z,13.39
2022-11-16T09:50:34.197Z,13.39
2022-11-16T09:51:35.997Z,13.39
2022-11-16T09:52:37.809Z,13.40
2022-11-16T09:53:39.646Z,13.40
2022-11-16T09:54:41.580Z,13.39
2022-11-16T09:55:43.404Z,13.39
2022-11-16T09:56:45.203Z,13.40
2022-11-16T09:57:47.019Z,13.40
2022-11-16T09:58:48.942Z,13.42
2022-11-16T09:59:50.783Z,13.43
2022-11-16T10:00:52.618Z,13.42
2022-11-16T10:01:54.419Z,13.42
2022-11-16T10:02:56.244Z,13.42
2022-11-16T10:04:00.335Z,13.42
2022-11-16T10:05:02.260Z,13.41
2022-11-16T10:06:04.099Z,13.41
2022-11-16T10:07:05.908Z,13.41
2022-11-16T10:08:07.717Z,13.39
2022-11-16T10:09:09.553Z,13.40
2022-11-16T10:10:12.541Z,13.40
2022-11-16T10:11:14.386Z,13.41
2022-11-16T10:12:16.175Z,13.41
2022-11-16T10:13:18.011Z,13.40
2022-11-16T10:14:19.810Z,13.40
2022-11-16T10:15:21.690Z,13.41
2022-11-16T10:16:23.514Z,13.41
2022-11-16T10:17:25.314Z,13.40
2022-11-16T10:18:27.148Z,13.40
2022-11-16T10:19:28.981Z,13.40
2022-11-16T10:20:31.308Z,13.41
2022-11-16T10:21:33.274Z,13.42
2022-11-16T10:22:35.143Z,13.42
2022-11-16T10:23:37.039Z,13.43
2022-11-16T10:24:39.069Z,13.43
2022-11-16T10:25:40.908Z,13.44
2022-11-16T10:26:42.920Z,13.44
2022-11-16T10:27:44.721Z,13.43
2022-11-16T10:28:46.551Z,13.44
2022-11-16T10:29:48.355Z,13.44
2022-11-16T10:30:50.316Z,13.45
2022-11-16T10:31:52.130Z,13.47
2022-11-16T10:32:53.954Z,13.47
2022-11-16T10:33:55.776Z,13.47
2022-11-16T10:34:57.651Z,13.47
2022-11-16T10:35:59.521Z,13.48
2022-11-16T10:37:01.376Z,13.51
2022-11-16T10:38:03.195Z,13.51
2022-11-16T10:39:04.997Z,13.53
2022-11-16T10:40:07.119Z,13.53
2022-11-16T10:41:08.966Z,13.54
2022-11-16T10:42:10.770Z,13.54
2022-11-16T10:43:12.574Z,13.55
2022-11-16T10:44:14.395Z,13.55
2022-11-16T10:45:16.227Z,13.56
2022-11-16T10:46:18.085Z,13.58
2022-11-16T10:47:19.885Z,13.59
2022-11-16T10:48:21.699Z,13.59
2022-11-16T10:49:23.516Z,13.59
2022-11-16T10:50:25.340Z,13.58
2022-11-16T10:51:27.289Z,13.58
2022-11-16T10:52:29.105Z,13.57
2022-11-16T10:53:31.037Z,13.56
2022-11-16T10:54:32.951Z,13.57
2022-11-16T10:55:34.757Z,13.56
2022-11-16T10:56:36.731Z,13.55
2022-11-16T10:57:38.544Z,13.55
2022-11-16T10:58:40.361Z,13.54
2022-11-16T10:59:42.179Z,13.53
2022-11-16T11:00:44.125Z,13.53
2022-11-16T11:01:45.947Z,13.51
2022-11-16T11:02:47.794Z,13.49
2022-11-16T11:03:49.618Z,13.50
2022-11-16T11:04:51.443Z,13.48
2022-11-16T11:05:53.269Z,13.48
2022-11-16T11:06:55.370Z,13.47
2022-11-16T11:07:59.693Z,13.48
2022-11-16T11:09:00.841Z,13.46
2022-11-16T11:10:02.813Z,13.45
2022-11-16T11:11:04.713Z,13.45
2022-11-16T11:12:06.618Z,13.46
2022-11-16T11:13:08.414Z,13.45
2022-11-16T11:14:10.215Z,13.44
2022-11-16T11:15:12.030Z,13.44
2022-11-16T11:16:14.565Z,13.45
2022-11-16T11:17:16.398Z,13.45
2022-11-16T11:18:18.252Z,13.45
2022-11-16T11:19:20.047Z,13.44
2022-11-16T11:20:21.883Z,13.44
2022-11-16T11:21:23.686Z,13.43
2022-11-16T11:22:25.560Z,13.43
2022-11-16T11:23:27.379Z,13.43
2022-11-16T11:24:45.103Z,13.42
2022-11-16T11:25:32.924Z,13.42
2022-11-16T11:26:37.018Z,13.41
2022-11-16T11:27:38.456Z,13.40
2022-11-16T11:28:40.264Z,13.39
2022-11-16T11:29:42.073Z,13.39
2022-11-16T11:30:44.005Z,13.40
2022-11-16T11:31:45.832Z,13.40
2022-11-16T11:32:47.708Z,13.39
2022-11-16T11:33:49.493Z,13.38
2022-11-16T11:34:51.333Z,13.38
2022-11-16T11:35:53.095Z,13.39
2022-11-16T11:36:54.916Z,13.40
2022-11-16T11:37:56.809Z,13.39
2022-11-16T11:38:58.697Z,13.40
2022-11-16T11:40:00.579Z,13.42
2022-11-16T11:41:03.087Z,13.42
2022-11-16T11:42:04.886Z,13.42
2022-11-16T11:43:06.730Z,13.41
2022-11-16T11:44:08.521Z,13.42
2022-11-16T11:45:10.245Z,13.42
2022-11-16T11:46:12.186Z,13.43
2022-11-16T11:47:56.137Z,13.43
2022-11-16T11:48:17.630Z,13.42
2022-11-16T11:49:19.422Z,13.43
2022-11-16T11:50:21.299Z,13.45
2022-11-16T11:51:23.134Z,13.44
2022-11-16T11:52:24.957Z,13.46
2022-11-16T11:53:27.131Z,13.45
2022-11-16T11:54:28.967Z,13.44
2022-11-16T11:55:31.003Z,13.44
2022-11-16T11:56:32.842Z,13.45
2022-11-16T11:57:34.772Z,13.44
2022-11-16T11:58:36.643Z,13.42
2022-11-16T11:59:38.457Z,13.42
2022-11-16T12:00:40.305Z,13.42
2022-11-16T12:01:42.125Z,13.41
2022-11-16T12:02:44.028Z,13.42
2022-11-16T12:03:45.884Z,13.42
2022-11-16T12:04:47.740Z,13.41
2022-11-16T12:05:49.561Z,13.41
2022-11-16T12:06:51.744Z,13.42
2022-11-16T12:07:53.583Z,13.43
2022-11-16T12:08:55.704Z,13.42
2022-11-16T12:09:57.498Z,13.42
2022-11-16T12:10:59.373Z,13.43
2022-11-16T12:12:01.254Z,13.42
2022-11-16T12:13:03.090Z,13.42
2022-11-16T12:14:04.908Z,13.42
2022-11-16T12:15:06.807Z,13.43
2022-11-16T12:16:08.758Z,13.43
2022-11-16T12:17:10.591Z,13.43
2022-11-16T12:18:12.402Z,13.43
2022-11-16T12:19:14.440Z,13.43
2022-11-16T12:20:16.278Z,13.44
2022-11-16T12:21:18.111Z,13.43
2022-11-16T12:22:19.956Z,13.42
2022-11-16T12:23:21.922Z,13.44
2022-11-16T12:24:23.822Z,13.45
2022-11-16T12:25:25.619Z,13.45
2022-11-16T12:26:27.459Z,13.46
2022-11-16T12:27:29.300Z,13.46
2022-11-16T12:28:31.117Z,13.46
2022-11-16T12:29:33.001Z,13.46
2022-11-16T12:30:34.844Z,13.47
2022-11-16T12:31:36.623Z,13.48
2022-11-16T12:32:38.432Z,13.49
2022-11-16T12:33:40.242Z,13.48
2022-11-16T12:34:42.085Z,13.49
2022-11-16T12:35:44.966Z,13.50
2022-11-16T12:36:46.965Z,13.49
2022-11-16T12:37:48.770Z,13.49
2022-11-16T12:38:50.716Z,13.50
2022-11-16T12:39:52.763Z,13.50
2022-11-16T12:40:54.639Z,13.49
2022-11-16T12:41:56.485Z,13.49
2022-11-16T12:42:58.334Z,13.48
2022-11-16T12:44:00.164Z,13.48
2022-11-16T12:45:02.025Z,13.47
2022-11-16T12:46:03.851Z,13.47
2022-11-16T12:47:05.700Z,13.45
2022-11-16T12:48:07.509Z,13.45
2022-11-16T12:49:09.332Z,13.46
2022-11-16T12:50:11.437Z,13.46
2022-11-16T12:51:13.278Z,13.46
2022-11-16T12:52:15.095Z,13.46
2022-11-16T12:53:16.935Z,13.46
2022-11-16T12:54:18.782Z,13.46
2022-11-16T12:55:26.784Z,13.45
2022-11-16T12:56:25.589Z,13.46
2022-11-16T12:57:27.422Z,13.46
2022-11-16T12:58:29.256Z,13.45
2022-11-16T12:59:31.039Z,13.46
2022-11-16T13:00:32.930Z,13.44
2022-11-16T13:01:34.870Z,13.46
2022-11-16T13:02:36.771Z,13.46
2022-11-16T13:03:38.638Z,13.46
2022-11-16T13:04:40.440Z,13.46
2022-11-16T13:05:42.309Z,13.46
2022-11-16T13:06:44.116Z,13.47
2022-11-16T13:07:45.988Z,13.46
2022-11-16T13:08:47.884Z,13.47
2022-11-16T13:09:49.810Z,13.46
2022-11-16T13:10:52.066Z,13.45
2022-11-16T13:11:53.887Z,13.45
2022-11-16T13:13:09.010Z,13.46
2022-11-16T13:13:59.843Z,13.45
2022-11-16T13:15:02.161Z,13.46
2022-11-16T13:16:04.071Z,13.45
2022-11-16T13:17:05.891Z,13.45
2022-11-16T13:18:07.751Z,13.44